Gustavo Rojas Pinilla International Airport
SKSP : now visible

Airfield :











YOU CAN JOIN US ON...

 
LOGIN :

Register | Disclaimer

   EN    FR    IT 

 









Legend :    VFR   Marginal VFR   IFR   Intensive IFR   Very Intensive IFR
Visi :
Ceiling :
>= 8 km
>= 3000ft
5 to 8 km
1000 to 3000 ft
1500m to 5 km
500 to 1000 ft
800 to 1500m
200 to 500 ft
< 800m
< 200 ft
Symbols :   Thunderstorms  Fog  Heavy snow  Heavy precipitations  Wind > 20 kt







- Airport Elevation : 19 ft
- IATA code : ADZ


SKSP - Gustavo Rojas Pinilla International

CURRENT METAR :
  • 220900Z 00000KT 9999 FEW016 SCT200 25/24 A2986

EXPIRED METARs :
  • 220800Z 00000KT 9999 FEW016 SCT200 25/24 A2986
  • 220700Z 00000KT 9999 FEW016 SCT200 25/24 A2987

TAF TAF SKSP
Valid from the 22 at 06:00 until the 23 at 06:00 UTC


220430Z 2206/2306 VRB04KT 9999 FEW017 SCT120 TX31/2218Z TN26/2211Z
No reported NOTAMs for that airfield.



MET'MAP, your aeronautical weather chart ! - Copyright ORBIFLY December 2007 - Disclaimer

ORBIFLY MET'MAP TEAM :

Programming & Development : Alexandra Zaïnal
Concept & Development : Baudouin d'Aumeries
Co-Development & Prog : Marc-Olivier Méhu
Technical & hardware support : Manuel Goepfert

Contact : metmap@orbifly.com




SOURCES & CREDITS :

   NOAA       Earth
Advisory